Purerua, New Zealand
Current Conditions -  °F | °C
As of 4:00 PM on Wednesday 26 Nov 2014 (Local Time) from NZAA Reporting Station
Broken Clouds Broken Clouds  
Wind Chill: 66°   Ceiling: 6000
Heat Index: 66°   Visibility: 6mi
Dew Point: 59°   Wind: 13mph
Humidity: 78%   Direction: 230°SW
Pressure: 29.97"   Gusts: NA
Location:  35.15°S, 174.04°E
Report Text: NZAA 260400Z AUTO 23011KT 9999 BKN060/// 19/15 Q1015 NOSIG
Loading
Personal Weather Stations






























Interactive Weather Map New forecast layout! Learn more

10-Day Weather Forecast

Advertisements
Track Severe Weather on mobile